Time;durP1;ratioP1;P1;durP2;ratioP2;P2;SDS_P1;SDS_P2;PMS_P1;PMS_P2;Temp;Humidity;BMP_temperature;BMP_pressure;BME280_temperature;BME280_humidity;BME280_pressure;Samples;Min_cycle;Max_cycle;Signal;HPM_P1;HPM_P2
2022/04/24 00:00:55;;;;;;;11.95;8.60;;;;;;;3.33;78.55;98922.16;1675346;85;21510;-61
2022/04/24 00:03:21;;;;;;;15.10;10.08;;;;;;;3.35;78.54;98921.64;1670406;84;20925;-62
2022/04/24 00:05:48;;;;;;;20.20;10.72;;;;;;;3.39;78.66;98915.09;1655524;85;21021;-61
2022/04/24 00:08:15;;;;;;;15.80;10.30;;;;;;;3.40;78.69;98915.51;1656727;85;21012;-61
2022/04/24 00:10:41;;;;;;;14.57;10.30;;;;;;;3.41;78.79;98915.89;1661405;83;21538;-61
2022/04/24 00:13:08;;;;;;;17.77;10.00;;;;;;;3.42;78.76;98925.31;1704020;82;21449;-61
2022/04/24 00:15:35;;;;;;;22.20;10.90;;;;;;;3.44;78.84;98924.83;1703838;82;21040;-62
2022/04/24 00:18:02;;;;;;;11.63;9.03;;;;;;;3.48;78.85;98927.73;1702497;82;20913;-62
2022/04/24 00:20:28;;;;;;;15.83;9.55;;;;;;;3.51;79.19;98922.47;1701731;82;21690;-62
2022/04/24 00:22:55;;;;;;;12.25;9.08;;;;;;;3.48;79.05;98919.98;1704569;82;21083;-62
2022/04/24 00:25:22;;;;;;;13.00;9.30;;;;;;;3.48;79.12;98917.41;1706029;82;22007;-61
2022/04/24 00:27:48;;;;;;;15.32;7.80;;;;;;;3.46;78.90;98914.02;1703378;82;20945;-61
2022/04/24 00:30:15;;;;;;;17.90;10.53;;;;;;;3.43;79.12;98907.22;1703138;82;21541;-61
2022/04/24 00:32:41;;;;;;;17.60;10.27;;;;;;;3.44;79.14;98905.47;1701846;82;21486;-61
2022/04/24 00:35:09;;;;;;;15.45;9.20;;;;;;;3.47;79.15;98905.38;1702212;83;20937;-62
2022/04/24 00:37:36;;;;;;;11.50;8.80;;;;;;;3.50;79.13;98907.86;1702174;82;21420;-62
2022/04/24 00:40:04;;;;;;;9.70;7.92;;;;;;;3.50;79.13;98903.98;1701580;82;21542;-62
2022/04/24 00:42:31;;;;;;;10.18;7.40;;;;;;;3.49;79.28;98901.02;1679780;84;21060;-61
2022/04/24 00:44:57;;;;;;;14.97;7.50;;;;;;;3.48;80.02;98904.50;1681074;83;21588;-61
2022/04/24 00:47:24;;;;;;;12.43;7.55;;;;;;;3.43;79.71;98898.63;1704655;82;20969;-61
2022/04/24 00:49:51;;;;;;;17.32;9.90;;;;;;;3.38;79.66;98903.09;1704780;82;21640;-61
2022/04/24 00:52:18;;;;;;;11.88;8.28;;;;;;;3.38;79.66;98897.93;1702381;83;20913;-61
2022/04/24 00:54:45;;;;;;;16.80;10.40;;;;;;;3.44;79.77;98899.02;1700084;82;22454;-61
2022/04/24 00:57:13;;;;;;;14.40;8.90;;;;;;;3.45;79.69;98902.02;1701459;82;21143;-62
2022/04/24 00:59:41;;;;;;;10.55;8.45;;;;;;;3.47;79.83;98900.21;1705587;82;21566;-61
2022/04/24 01:02:09;;;;;;;16.93;10.10;;;;;;;3.47;80.00;98899.76;1701029;82;21235;-61
2022/04/24 01:04:37;;;;;;;16.60;9.33;;;;;;;3.44;79.83;98895.98;1704908;82;21072;-61
2022/04/24 01:07:05;;;;;;;12.23;8.23;;;;;;;3.43;80.10;98892.19;1704556;82;20984;-61
2022/04/24 01:09:34;;;;;;;9.85;7.37;;;;;;;3.45;80.39;98896.86;1705090;82;21084;-61
2022/04/24 01:12:06;;;;;;;17.02;9.98;;;;;;;3.42;80.48;98897.80;1696489;82;20953;-61
2022/04/24 01:14:34;;;;;;;11.30;8.40;;;;;;;3.40;80.19;98898.73;1661359;85;22229;-61
2022/04/24 01:17:06;;;;;;;11.95;8.23;;;;;;;3.38;80.58;98897.93;1687991;84;21734;-62
2022/04/24 01:19:33;;;;;;;16.97;8.58;;;;;;;3.38;80.38;98900.51;1666495;85;21586;-62
2022/04/24 01:22:00;;;;;;;;;;;;;;;3.39;80.44;98900.89;1681746;84;20989;-61
2022/04/24 01:24:29;;;;;;;13.48;9.60;;;;;;;3.41;80.69;98892.67;1677095;84;20095;-61
2022/04/24 01:26:56;;;;;;;9.83;8.00;;;;;;;3.36;80.89;98893.67;1659668;84;21146;-62
2022/04/24 01:29:25;;;;;;;11.05;8.33;;;;;;;3.34;81.31;98892.87;1692366;82;20922;-61
2022/04/24 01:31:52;;;;;;;10.50;8.17;;;;;;;3.32;80.88;98889.94;1690772;83;21502;-61
2022/04/24 01:34:20;;;;;;;12.05;8.55;;;;;;;3.34;80.73;98888.16;1691494;83;21238;-61
2022/04/24 01:36:48;;;;;;;13.32;9.03;;;;;;;3.36;80.76;98884.64;1689429;82;20965;-62
2022/04/24 01:39:15;;;;;;;13.43;10.55;;;;;;;3.39;80.70;98886.70;1691074;82;21060;-61
2022/04/24 01:41:43;;;;;;;10.18;8.90;;;;;;;3.42;80.80;98884.89;1688662;83;21044;-61
2022/04/24 01:44:09;;;;;;;12.70;9.03;;;;;;;3.46;81.32;98889.05;1692553;83;21528;-61
2022/04/24 01:46:36;;;;;;;13.00;9.93;;;;;;;3.44;81.00;98886.12;1693714;83;20945;-61
2022/04/24 01:49:03;;;;;;;16.97;10.95;;;;;;;3.42;80.97;98890.47;1688066;83;21100;-62
2022/04/24 01:51:30;;;;;;;19.05;10.68;;;;;;;3.43;81.00;98889.15;1694149;83;21112;-61
2022/04/24 01:53:56;;;;;;;12.82;10.23;;;;;;;3.45;81.04;98889.12;1691760;83;21563;-62
2022/04/24 01:56:23;;;;;;;13.90;10.50;;;;;;;3.46;81.88;98886.47;1691682;83;20969;-62
2022/04/24 01:58:50;;;;;;;13.40;10.50;;;;;;;3.42;81.26;98882.31;1693499;82;20957;-61
2022/04/24 02:01:17;;;;;;;13.83;10.10;;;;;;;3.44;81.22;98882.25;1692585;83;21066;-62
2022/04/24 02:03:43;;;;;;;12.82;9.88;;;;;;;3.48;81.16;98874.82;1691136;83;21738;-62
2022/04/24 02:06:10;;;;;;;17.80;11.37;;;;;;;3.53;81.15;98879.39;1692132;83;21120;-62
2022/04/24 02:08:37;;;;;;;13.08;8.95;;;;;;;3.53;81.19;98881.98;1690670;83;21400;-62
2022/04/24 02:11:06;;;;;;;18.50;10.78;;;;;;;3.53;81.34;98880.69;1692673;83;21084;-61
2022/04/24 02:13:34;;;;;;;10.95;8.73;;;;;;;3.48;81.28;98883.86;1696156;83;21103;-62
2022/04/24 02:16:01;;;;;;;11.43;7.95;;;;;;;3.49;81.34;98880.37;1698283;81;21153;-62
2022/04/24 02:18:28;;;;;;;10.82;8.83;;;;;;;3.44;81.70;98883.09;1689191;83;21091;-61
2022/04/24 02:20:54;;;;;;;9.33;7.90;;;;;;;3.44;81.73;98879.22;1697619;83;21005;-62
2022/04/24 02:23:21;;;;;;;14.27;8.80;;;;;;;3.43;82.05;98877.98;1698386;83;21013;-61
2022/04/24 02:25:48;;;;;;;9.23;8.08;;;;;;;3.41;82.00;98874.61;1697678;83;21032;-61
2022/04/24 02:28:15;;;;;;;12.05;8.78;;;;;;;3.41;82.46;98872.02;1698629;83;21084;-61
2022/04/24 02:30:42;;;;;;;12.18;9.60;;;;;;;3.40;82.29;98875.51;1698237;83;21058;-61
2022/04/24 02:33:09;;;;;;;11.45;8.88;;;;;;;3.39;82.31;98866.06;1700200;83;21015;-61
2022/04/24 02:35:36;;;;;;;14.38;10.98;;;;;;;3.43;82.49;98871.54;1700271;83;21016;-61
2022/04/24 02:38:02;;;;;;;14.67;9.57;;;;;;;3.40;82.54;98872.93;1698170;83;21121;-61
2022/04/24 02:40:29;;;;;;;15.50;10.53;;;;;;;3.43;82.69;98865.09;1700796;83;21340;-62
2022/04/24 02:42:56;;;;;;;8.90;8.00;;;;;;;3.42;82.47;98873.70;1699053;83;20981;-61
2022/04/24 02:45:23;;;;;;;14.85;10.32;;;;;;;3.46;82.64;98875.31;1699883;83;21529;-61
2022/04/24 02:47:50;;;;;;;12.25;8.38;;;;;;;3.49;82.32;98868.30;1700243;83;21039;-61
2022/04/24 02:50:17;;;;;;;9.40;7.72;;;;;;;3.52;82.58;98863.04;1702795;83;21794;-61
2022/04/24 02:52:50;;;;;;;17.48;9.08;;;;;;;3.50;82.62;98860.11;1700913;83;21012;-62
2022/04/24 02:55:18;;;;;;;14.13;9.58;;;;;;;3.50;82.44;98853.66;1697771;83;21491;-61
2022/04/24 02:57:45;;;;;;;19.15;11.75;;;;;;;3.54;82.46;98851.39;1701021;83;20991;-61
2022/04/24 03:00:19;;;;;;;;;;;;;;;3.54;82.39;98850.09;1694864;83;21051;-61
2022/04/24 03:02:44;;;;;;;12.28;9.30;;;;;;;3.56;82.54;98847.03;1701358;83;20144;-61
2022/04/24 03:05:14;;;;;;;12.10;10.45;;;;;;;3.58;82.51;98846.51;1675804;85;21132;-61
2022/04/24 03:07:42;;;;;;;10.95;8.30;;;;;;;3.58;82.46;98845.22;1686742;83;21014;-61
2022/04/24 03:10:10;;;;;;;14.15;10.53;;;;;;;3.56;83.16;98838.00;1692964;83;21118;-62
2022/04/24 03:12:38;;;;;;;12.05;10.10;;;;;;;3.52;82.91;98840.27;1672178;85;21495;-61
2022/04/24 03:15:07;;;;;;;15.40;10.55;;;;;;;3.51;82.76;98839.88;1679154;85;20997;-61
2022/04/24 03:17:34;;;;;;;11.03;8.95;;;;;;;3.53;82.84;98845.84;1675071;85;21168;-61
2022/04/24 03:20:03;;;;;;;11.93;9.70;;;;;;;3.58;82.80;98843.92;1670320;85;21587;-61
2022/04/24 03:22:33;;;;;;;11.45;9.40;;;;;;;3.62;82.72;98835.20;1698390;83;21451;-61
2022/04/24 03:25:04;;;;;;;21.95;10.70;;;;;;;3.62;82.73;98830.05;1699043;83;21012;-61
2022/04/24 03:27:30;;;;;;;12.88;9.38;;;;;;;3.62;82.75;98832.63;1697288;83;21530;-62
2022/04/24 03:29:57;;;;;;;14.20;10.03;;;;;;;3.58;83.02;98828.44;1698685;82;21414;-61
2022/04/24 03:32:25;;;;;;;11.22;9.40;;;;;;;3.56;82.97;98824.63;1698649;83;21091;-61
2022/04/24 03:34:52;;;;;;;14.18;11.05;;;;;;;3.55;83.12;98825.96;1702792;83;24718;-61
2022/04/24 03:37:19;;;;;;;18.37;12.07;;;;;;;3.56;83.13;98822.51;1698228;83;21140;-61
2022/04/24 03:39:45;;;;;;;20.37;11.87;;;;;;;3.59;83.10;98822.41;1699700;83;21009;-61
2022/04/24 03:42:13;;;;;;;12.70;10.30;;;;;;;3.62;83.10;98811.97;1698618;83;21583;-62
2022/04/24 03:44:39;;;;;;;26.93;11.45;;;;;;;3.66;83.06;98816.12;1697476;83;20906;-62
2022/04/24 03:47:07;;;;;;;14.18;11.22;;;;;;;3.67;82.96;98817.83;1700159;83;20960;-61
2022/04/24 03:49:33;;;;;;;;;;;;;;;3.72;83.02;98812.03;1704092;83;21067;-62
2022/04/24 03:52:00;;;;;;;14.10;10.57;;;;;;;3.76;83.05;98813.64;1698570;83;20466;-62
2022/04/24 03:54:27;;;;;;;15.55;11.93;;;;;;;3.73;83.02;98815.03;1698926;83;21388;-62
2022/04/24 03:56:54;;;;;;;19.23;10.93;;;;;;;3.77;83.07;98814.02;1700374;83;20957;-61
2022/04/24 03:59:21;;;;;;;13.55;10.48;;;;;;;3.76;83.05;98807.19;1700836;83;21052;-60
2022/04/24 04:01:48;;;;;;;14.10;11.00;;;;;;;3.75;83.16;98813.25;1694962;83;21028;-61
2022/04/24 04:04:15;;;;;;;14.55;11.03;;;;;;;3.74;83.17;98808.97;1700893;83;21511;-61
2022/04/24 04:06:42;;;;;;;14.98;11.30;;;;;;;3.73;83.23;98807.29;1700094;83;21977;-61
2022/04/24 04:09:10;;;;;;;13.75;10.50;;;;;;;3.72;83.42;98801.71;1701254;83;21005;-61
2022/04/24 04:11:37;;;;;;;14.28;10.78;;;;;;;3.75;83.49;98810.67;1700017;83;21071;-61
2022/04/24 04:14:04;;;;;;;14.13;10.72;;;;;;;3.77;83.62;98806.27;1700923;82;20950;-61
2022/04/24 04:16:31;;;;;;;15.72;11.08;;;;;;;3.79;83.51;98802.36;1699195;83;21020;-61
2022/04/24 04:18:57;;;;;;;13.68;10.38;;;;;;;3.81;83.48;98801.88;1698749;83;21883;-61
2022/04/24 04:21:26;;;;;;;14.33;10.07;;;;;;;3.84;83.69;98797.02;1698272;83;21024;-61
2022/04/24 04:23:53;;;;;;;15.32;9.83;;;;;;;3.79;84.06;98800.62;1697932;83;21084;-62
2022/04/24 04:26:19;;;;;;;13.90;10.38;;;;;;;3.76;83.84;98802.02;1697985;83;21440;-62
2022/04/24 04:28:46;;;;;;;13.58;9.68;;;;;;;3.79;83.79;98801.08;1697886;83;20961;-61
2022/04/24 04:31:14;;;;;;;15.70;10.85;;;;;;;3.80;84.87;98798.42;1695387;83;21447;-61
2022/04/24 04:33:43;;;;;;;16.80;11.53;;;;;;;3.79;84.48;98804.49;1696307;83;20913;-62
2022/04/24 04:36:10;;;;;;;16.07;11.43;;;;;;;3.88;84.33;98805.08;1695903;82;20957;-61
2022/04/24 04:38:37;;;;;;;16.32;11.22;;;;;;;3.97;84.21;98807.33;1695653;83;20980;-62
2022/04/24 04:41:04;;;;;;;15.65;10.48;;;;;;;4.05;84.23;98805.32;1697698;83;21554;-61
2022/04/24 04:43:31;;;;;;;17.15;11.03;;;;;;;4.14;84.17;98804.98;1693994;83;23203;-62
2022/04/24 04:45:58;;;;;;;13.23;10.07;;;;;;;4.24;84.20;98802.93;1698708;83;21067;-62
2022/04/24 04:48:26;;;;;;;14.27;10.93;;;;;;;4.37;84.15;98806.77;1697512;82;21336;-62
2022/04/24 04:50:52;;;;;;;;;;;;;;;4.41;84.10;98808.77;1700347;83;22349;-61
2022/04/24 04:53:19;;;;;;;17.45;10.32;;;;;;;4.47;84.10;98803.38;1698320;83;20103;-62
2022/04/24 04:55:46;;;;;;;15.32;11.85;;;;;;;4.52;84.31;98810.52;1699595;82;21108;-62
2022/04/24 04:58:13;;;;;;;17.25;11.20;;;;;;;4.57;84.24;98812.48;1697822;83;21016;-61
2022/04/24 05:00:40;;;;;;;15.43;10.40;;;;;;;4.61;84.28;98812.75;1701627;83;21071;-61
2022/04/24 05:03:07;;;;;;;15.25;10.90;;;;;;;4.71;84.25;98816.68;1697900;83;20977;-62
2022/04/24 05:05:34;;;;;;;;;;;;;;;4.79;84.42;98820.28;1704091;83;21064;-62
2022/04/24 05:08:00;;;;;;;14.63;11.03;;;;;;;4.79;84.71;98819.41;1699684;83;21625;-61
2022/04/24 05:10:27;;;;;;;16.42;11.70;;;;;;;4.78;85.27;98821.16;1699316;83;21004;-61
2022/04/24 05:12:54;;;;;;;14.95;10.70;;;;;;;4.78;85.12;98824.20;1702540;82;20988;-60
2022/04/24 05:15:21;;;;;;;15.20;11.28;;;;;;;4.76;85.14;98821.69;1707369;82;20988;-60
2022/04/24 05:17:48;;;;;;;16.17;11.12;;;;;;;4.79;85.47;98823.29;1709078;82;23578;-61
2022/04/24 05:20:15;;;;;;;22.48;11.53;;;;;;;4.83;85.81;98818.41;1709429;82;21419;-62
2022/04/24 05:22:42;;;;;;;16.10;10.23;;;;;;;4.96;85.49;98818.34;1710385;82;21008;-62
2022/04/24 05:25:12;;;;;;;14.05;10.00;;;;;;;5.04;85.50;98818.88;1711200;82;21033;-61
2022/04/24 05:27:39;;;;;;;12.30;10.00;;;;;;;5.12;85.86;98814.22;1706838;82;21025;-62
2022/04/24 05:30:08;;;;;;;15.68;10.05;;;;;;;5.12;85.54;98822.44;1707477;82;21067;-62
2022/04/24 05:32:50;;;;;;;15.28;9.93;;;;;;;5.15;85.33;98828.36;1706832;82;21124;-62
2022/04/24 05:35:13;;;;;;;15.32;10.40;;;;;;;5.09;85.03;98829.87;1675017;84;21008;-62
2022/04/24 05:37:40;;;;;;;14.30;10.28;;;;;;;5.13;85.07;98838.38;1675140;84;21050;-62
2022/04/24 05:40:09;;;;;;;13.58;10.15;;;;;;;5.14;85.03;98829.70;1647898;85;21021;-62
2022/04/24 05:42:53;;;;;;;16.48;10.95;;;;;;;5.16;84.92;98836.50;1652972;84;21143;-62
2022/04/24 05:45:22;;;;;;;14.18;9.93;;;;;;;5.08;85.19;98845.47;1670842;84;21609;-62
2022/04/24 05:47:50;;;;;;;15.80;9.93;;;;;;;5.08;85.25;98838.55;1672623;84;21040;-62
2022/04/24 05:50:18;;;;;;;17.82;10.28;;;;;;;5.20;85.25;98844.14;1681646;84;21476;-62
2022/04/24 05:52:45;;;;;;;14.07;9.23;;;;;;;5.27;85.24;98840.42;1649634;85;21036;-62
2022/04/24 05:55:12;;;;;;;16.17;9.85;;;;;;;5.54;85.27;98839.28;1677771;84;20993;-62
2022/04/24 05:57:39;;;;;;;;;;;;;;;5.87;85.33;98840.09;1712496;82;21061;-63
2022/04/24 06:00:09;;;;;;;16.52;8.83;;;;;;;6.23;84.81;98840.77;1712525;82;20561;-62
2022/04/24 06:02:36;;;;;;;12.75;8.33;;;;;;;6.35;84.20;98841.52;1719035;82;20980;-61
2022/04/24 06:05:03;;;;;;;16.42;8.88;;;;;;;6.38;83.83;98840.08;1709341;82;27035;-63
2022/04/24 06:07:32;;;;;;;11.68;8.45;;;;;;;6.49;84.21;98836.55;1707587;82;21593;-63
2022/04/24 06:09:59;;;;;;;17.35;9.18;;;;;;;6.87;84.46;98843.06;1672863;84;21052;-63
2022/04/24 06:12:27;;;;;;;10.60;6.40;;;;;;;7.11;84.10;98829.84;1647896;85;20984;-62
2022/04/24 06:15:04;;;;;;;11.35;6.50;;;;;;;7.19;83.61;98840.70;1662717;85;20949;-62
2022/04/24 06:17:31;;;;;;;11.95;6.40;;;;;;;7.28;83.80;98832.50;1654205;85;20969;-62
2022/04/24 06:19:58;;;;;;;12.25;6.85;;;;;;;7.54;83.77;98827.80;1651314;85;20998;-62
2022/04/24 06:22:25;;;;;;;9.90;5.40;;;;;;;7.61;82.96;98820.06;1652752;85;21104;-62
2022/04/24 06:24:51;;;;;;;11.03;6.22;;;;;;;7.79;83.17;98828.26;1620618;86;21458;-62
2022/04/24 06:27:18;;;;;;;9.03;6.10;;;;;;;7.89;81.65;98825.19;1656164;85;21068;-62
2022/04/24 06:29:44;;;;;;;9.93;6.27;;;;;;;7.78;81.74;98827.86;1661742;85;21241;-62
2022/04/24 06:32:14;;;;;;;10.47;5.60;;;;;;;8.03;82.84;98824.02;1630299;86;20957;-63
2022/04/24 06:34:41;;;;;;;8.13;5.30;;;;;;;8.17;81.16;98829.35;1659212;85;23410;-62
2022/04/24 06:37:08;;;;;;;9.58;5.72;;;;;;;8.21;81.80;98826.98;1654354;85;21096;-62
2022/04/24 06:39:37;;;;;;;7.70;5.47;;;;;;;8.38;81.77;98826.58;1653841;85;21080;-62
2022/04/24 06:42:04;;;;;;;8.58;5.67;;;;;;;8.69;82.51;98822.74;1662306;85;21068;-63
2022/04/24 06:44:31;;;;;;;9.30;5.70;;;;;;;9.34;83.37;98829.61;1653976;85;21043;-62
2022/04/24 06:46:58;;;;;;;8.55;4.97;;;;;;;9.64;81.55;98833.08;1656944;85;21325;-62
2022/04/24 06:49:30;;;;;;;10.23;5.67;;;;;;;10.03;81.24;98827.77;1655224;85;21514;-62
2022/04/24 06:51:57;;;;;;;16.10;10.80;;;;;;;10.48;81.39;98828.58;1662637;85;21056;-63
2022/04/24 06:54:24;;;;;;;11.22;6.60;;;;;;;11.06;81.46;98829.78;1654317;85;21035;-63
2022/04/24 06:56:51;;;;;;;23.00;14.05;;;;;;;11.73;80.38;98831.12;1663930;85;21455;-63
2022/04/24 06:59:18;;;;;;;23.80;15.13;;;;;;;12.19;79.24;98840.69;1655762;85;21518;-64
2022/04/24 07:01:47;;;;;;;12.70;7.85;;;;;;;12.23;77.85;98838.69;1661232;85;21162;-66
2022/04/24 07:04:13;;;;;;;20.43;13.90;;;;;;;11.72;75.75;98845.97;1659518;85;21098;-63
2022/04/24 07:06:40;;;;;;;9.70;6.22;;;;;;;10.98;76.36;98836.35;1657927;85;21588;-63
2022/04/24 07:09:08;;;;;;;12.03;5.90;;;;;;;10.80;77.16;98831.44;1657712;85;20970;-64
2022/04/24 07:11:35;;;;;;;8.53;5.50;;;;;;;10.96;78.87;98835.60;1659290;85;21406;-68
2022/04/24 07:14:02;;;;;;;12.23;6.00;;;;;;;11.32;77.58;98826.36;1678181;83;21040;-64
2022/04/24 07:16:28;;;;;;;12.37;6.83;;;;;;;11.34;75.99;98826.24;1699620;83;20957;-63
2022/04/24 07:18:55;;;;;;;11.57;6.72;;;;;;;11.15;76.22;98829.22;1697159;83;21005;-63
2022/04/24 07:21:22;;;;;;;13.25;9.50;;;;;;;10.86;75.74;98824.05;1697763;83;21526;-62
2022/04/24 07:23:49;;;;;;;11.15;5.42;;;;;;;10.62;76.53;98839.95;1699270;83;26759;-62
2022/04/24 07:26:16;;;;;;;9.03;4.83;;;;;;;10.68;77.59;98833.88;1698452;83;21507;-63
2022/04/24 07:28:42;;;;;;;10.18;5.50;;;;;;;10.69;75.73;98835.54;1697443;83;21413;-61
2022/04/24 07:31:11;;;;;;;10.93;7.60;;;;;;;10.69;77.35;98830.79;1697327;83;21008;-64
2022/04/24 07:33:38;;;;;;;10.28;5.05;;;;;;;10.89;78.05;98823.84;1696452;83;21079;-62
2022/04/24 07:36:05;;;;;;;9.25;4.40;;;;;;;10.84;76.84;98829.85;1700129;82;21539;-62
2022/04/24 07:38:32;;;;;;;10.88;4.80;;;;;;;11.06;77.27;98828.48;1700756;83;20941;-63
2022/04/24 07:41:00;;;;;;;9.20;4.75;;;;;;;10.98;76.21;98827.69;1704020;83;21004;-62
2022/04/24 07:43:27;;;;;;;7.42;3.70;;;;;;;10.83;76.46;98821.63;1698930;83;21001;-62
2022/04/24 07:45:54;;;;;;;13.08;4.95;;;;;;;11.02;76.97;98826.54;1693903;83;20948;-62
2022/04/24 07:48:20;;;;;;;9.30;4.10;;;;;;;10.75;75.10;98831.71;1694462;83;21088;-62
2022/04/24 07:50:50;;;;;;;7.22;4.12;;;;;;;10.79;75.86;98830.60;1664515;85;21557;-62
2022/04/24 07:53:18;;;;;;;10.70;5.08;;;;;;;11.04;76.36;98831.69;1667773;85;22427;-62
2022/04/24 07:55:49;;;;;;;8.08;3.60;;;;;;;11.12;75.82;98828.12;1697754;83;21672;-62
2022/04/24 07:58:16;;;;;;;10.00;3.80;;;;;;;11.22;75.58;98838.33;1701842;83;21545;-64
2022/04/24 08:00:54;;;;;;;9.00;4.37;;;;;;;11.10;74.77;98829.98;1698634;83;21413;-62
2022/04/24 08:03:23;;;;;;;11.70;3.40;;;;;;;10.91;73.49;98832.44;1697119;83;21080;-61
2022/04/24 08:06:12;;;;;;;13.03;4.45;;;;;;;10.83;74.29;98832.08;1699228;83;21634;-62
2022/04/24 08:08:39;;;;;;;9.35;3.60;;;;;;;10.73;73.75;98833.60;1641534;86;21043;-62
2022/04/24 08:11:05;;;;;;;8.60;3.95;;;;;;;10.73;72.86;98838.82;1642183;86;20958;-62
2022/04/24 08:13:34;;;;;;;6.45;3.72;;;;;;;10.89;74.58;98843.44;1628920;83;21050;-62
2022/04/24 08:16:02;;;;;;;5.92;3.20;;;;;;;11.22;75.34;98835.72;1652941;85;20956;-62
2022/04/24 08:18:29;;;;;;;6.08;3.60;;;;;;;11.49;74.80;98829.66;1632806;86;22233;-62
2022/04/24 08:20:56;;;;;;;9.95;3.17;;;;;;;11.42;71.48;98830.03;1659728;85;20998;-62
2022/04/24 08:23:25;;;;;;;8.10;4.97;;;;;;;11.51;70.60;98832.99;1633377;86;26920;-62
2022/04/24 08:25:52;;;;;;;8.35;4.28;;;;;;;11.49;71.89;98829.66;1661157;85;22552;-62
2022/04/24 08:28:20;;;;;;;7.03;3.20;;;;;;;11.55;71.86;98832.70;1656962;85;21520;-62
2022/04/24 08:30:48;;;;;;;5.72;3.08;;;;;;;11.76;70.51;98835.70;1660985;85;20920;-62
2022/04/24 08:33:17;;;;;;;6.60;3.00;;;;;;;11.78;69.09;98828.56;1633088;86;21115;-62
2022/04/24 08:35:45;;;;;;;5.80;2.60;;;;;;;11.71;70.55;98832.55;1666312;85;21358;-61
2022/04/24 08:38:12;;;;;;;4.75;2.77;;;;;;;11.86;69.43;98825.00;1667311;85;21163;-61
2022/04/24 08:40:39;;;;;;;5.90;2.90;;;;;;;11.94;69.95;98838.89;1633825;86;21085;-62
2022/04/24 08:43:06;;;;;;;4.58;2.70;;;;;;;11.85;66.80;98853.42;1658374;85;21040;-61
2022/04/24 08:45:33;;;;;;;6.62;2.80;;;;;;;11.86;68.53;98834.16;1653540;85;21211;-61
2022/04/24 08:48:02;;;;;;;4.67;2.92;;;;;;;12.03;68.86;98845.28;1656590;85;21562;-62
2022/04/24 08:50:32;;;;;;;5.20;2.72;;;;;;;12.23;67.45;98833.46;1628884;86;21084;-62
2022/04/24 08:53:00;;;;;;;7.12;3.00;;;;;;;12.33;69.90;98837.61;1657310;85;21067;-63
2022/04/24 08:55:31;;;;;;;6.20;2.98;;;;;;;12.64;70.83;98830.61;1635260;86;22365;-64
2022/04/24 08:57:58;;;;;;;5.10;2.72;;;;;;;12.98;69.94;98838.70;1657694;84;21103;-63
2022/04/24 09:00:28;;;;;;;7.60;2.83;;;;;;;13.07;69.88;98840.66;1626978;86;21068;-61
2022/04/24 09:02:57;;;;;;;6.97;2.80;;;;;;;13.18;69.03;98843.34;1655114;85;21737;-62
2022/04/24 09:05:26;;;;;;;5.17;2.40;;;;;;;13.42;70.26;98837.33;1667803;85;20986;-62
2022/04/24 09:07:55;;;;;;;3.60;3.05;;;;;;;13.46;68.68;98854.50;1630660;86;21016;-62
2022/04/24 09:10:24;;;;;;;4.37;3.00;;;;;;;13.49;69.41;98850.81;1632085;85;21014;-62
2022/04/24 09:12:56;;;;;;;4.08;2.52;;;;;;;13.57;67.92;98854.55;1652427;85;21003;-62
2022/04/24 09:15:46;;;;;;;5.83;2.85;;;;;;;13.37;66.46;98849.93;1626236;86;21133;-62
2022/04/24 09:18:13;;;;;;;6.97;2.87;;;;;;;13.24;66.08;98851.24;1712698;82;20971;-62
2022/04/24 09:20:43;;;;;;;7.35;2.80;;;;;;;13.24;67.77;98859.59;1715408;82;20928;-63
2022/04/24 09:23:10;;;;;;;3.87;2.70;;;;;;;13.24;66.92;98846.00;1693118;83;20965;-62
2022/04/24 09:25:42;;;;;;;7.15;3.00;;;;;;;13.33;67.09;98845.84;1687615;83;26927;-62
2022/04/24 09:28:09;;;;;;;7.60;2.80;;;;;;;13.41;67.60;98848.74;1653313;85;21113;-62
2022/04/24 09:30:36;;;;;;;9.65;3.22;;;;;;;13.39;66.19;98848.05;1711050;82;21088;-62
2022/04/24 09:33:06;;;;;;;6.50;3.12;;;;;;;13.39;66.49;98848.05;1722355;82;21301;-62
2022/04/24 09:35:40;;;;;;;5.55;2.98;;;;;;;13.42;65.51;98840.78;1716606;82;21041;-62
2022/04/24 09:38:19;;;;;;;5.97;2.90;;;;;;;13.42;65.47;98851.27;1719179;81;21658;-63
2022/04/24 09:40:49;;;;;;;5.87;2.72;;;;;;;13.20;64.10;98846.70;1709825;82;21550;-62
2022/04/24 09:43:19;;;;;;;5.62;3.15;;;;;;;13.02;63.83;98841.45;1722229;82;20963;-62
2022/04/24 09:45:55;;;;;;;6.60;2.77;;;;;;;12.97;65.41;98847.52;1709679;82;21568;-62
2022/04/24 09:48:25;;;;;;;5.28;2.75;;;;;;;13.15;64.51;98861.92;1701334;82;21001;-63
2022/04/24 09:50:54;;;;;;;4.90;3.10;;;;;;;13.12;65.37;98849.04;1699835;82;21133;-63
2022/04/24 09:53:43;;;;;;;6.22;3.37;;;;;;;13.24;65.22;98859.59;1715066;82;21431;-62
2022/04/24 09:56:11;;;;;;;7.37;3.60;;;;;;;13.27;65.34;98847.12;1627125;86;21168;-63
2022/04/24 09:58:38;;;;;;;5.17;3.20;;;;;;;13.29;63.85;98850.95;1652986;85;21101;-62
2022/04/24 10:01:06;;;;;;;;;;;;;;;13.39;65.12;98853.28;1666872;85;21092;-62
2022/04/24 10:03:41;;;;;;;7.65;3.30;;;;;;;13.45;64.94;98839.72;1624984;86;20280;-63
2022/04/24 10:06:07;;;;;;;6.85;3.50;;;;;;;13.32;61.92;98836.31;1655772;86;21162;-63
2022/04/24 10:08:34;;;;;;;3.42;3.10;;;;;;;13.23;63.66;98842.20;1640222;86;21109;-62
2022/04/24 10:11:06;;;;;;;4.10;2.90;;;;;;;13.10;62.86;98843.06;1654003;85;21584;-62
2022/04/24 10:13:36;;;;;;;5.70;3.83;;;;;;;13.09;63.60;98838.78;1649216;85;21029;-62
2022/04/24 10:16:37;;;;;;;5.50;3.00;;;;;;;13.27;63.33;98842.36;1648052;85;21033;-62
2022/04/24 10:19:21;;;;;;;6.70;3.20;;;;;;;13.32;63.46;98838.94;1614752;87;21122;-62
2022/04/24 10:22:13;;;;;;;3.55;2.90;;;;;;;13.00;61.26;98838.13;1616170;86;21212;-61
2022/04/24 10:24:45;;;;;;;6.15;3.10;;;;;;;13.02;60.96;98836.69;1597149;87;21565;-63
2022/04/24 10:27:12;;;;;;;5.15;3.40;;;;;;;13.02;62.74;98840.15;1622141;87;21210;-61
2022/04/24 10:29:53;;;;;;;4.90;3.30;;;;;;;13.14;61.85;98835.84;1618983;87;21088;-62
2022/04/24 10:32:27;;;;;;;7.55;3.22;;;;;;;13.03;60.17;98833.98;1624937;86;21170;-62
2022/04/24 10:34:54;;;;;;;5.30;2.85;;;;;;;12.70;60.91;98847.20;1604333;88;21202;-61
2022/04/24 10:37:33;;;;;;;5.62;3.20;;;;;;;12.57;60.85;98833.27;1571934;90;21061;-61
2022/04/24 10:40:02;;;;;;;5.90;3.42;;;;;;;12.75;61.47;98830.69;1597976;88;21496;-61
2022/04/24 10:42:32;;;;;;;6.47;3.22;;;;;;;12.48;58.19;98813.81;1623060;87;21187;-62
2022/04/24 10:45:16;;;;;;;4.37;2.95;;;;;;;12.36;60.35;98855.24;1594105;88;21263;-62
2022/04/24 10:47:55;;;;;;;4.25;2.90;;;;;;;12.40;61.09;98834.92;1594272;88;21116;-61
2022/04/24 10:50:22;;;;;;;7.03;2.90;;;;;;;12.41;59.32;98858.87;1611530;83;21107;-63
2022/04/24 10:52:53;;;;;;;;;;;;;;;12.47;59.69;98849.28;1612886;87;21108;-61
2022/04/24 10:55:25;;;;;;;10.43;3.12;;;;;;;12.53;60.58;98851.47;1612512;87;20231;-61
2022/04/24 10:57:59;;;;;;;5.25;3.27;;;;;;;12.46;60.24;98857.61;1600453;88;21139;-61
2022/04/24 11:00:35;;;;;;;4.37;3.17;;;;;;;12.31;59.61;98850.31;1592223;88;21696;-62
2022/04/24 11:03:16;;;;;;;4.83;3.50;;;;;;;12.24;59.98;98841.22;1575108;89;21000;-62
2022/04/24 11:05:46;;;;;;;5.28;3.52;;;;;;;12.29;60.99;98836.52;1603272;88;21136;-62
2022/04/24 11:08:20;;;;;;;6.10;3.45;;;;;;;12.35;60.57;98839.62;1605292;88;21123;-61
2022/04/24 11:10:49;;;;;;;5.28;3.27;;;;;;;12.43;61.22;98850.41;1581758;89;21150;-62
2022/04/24 11:13:21;;;;;;;4.78;3.52;;;;;;;12.57;60.97;98859.94;1582185;89;21175;-61
2022/04/24 11:15:50;;;;;;;7.00;3.58;;;;;;;12.58;61.23;98849.38;1581668;89;21076;-62
2022/04/24 11:18:29;;;;;;;6.22;3.45;;;;;;;12.58;60.85;98879.48;1578470;89;21536;-62
2022/04/24 11:21:03;;;;;;;4.22;3.35;;;;;;;12.44;60.66;98859.97;1578551;89;21627;-63
2022/04/24 11:23:40;;;;;;;5.40;3.42;;;;;;;12.29;60.34;98853.53;1579721;89;21614;-63
2022/04/24 11:26:12;;;;;;;4.80;3.52;;;;;;;12.22;60.80;98853.56;1584742;89;21548;-63
2022/04/24 11:28:40;;;;;;;6.15;3.67;;;;;;;12.19;60.77;98866.86;1588375;89;21133;-62
2022/04/24 11:31:19;;;;;;;6.37;3.08;;;;;;;12.14;60.75;98859.78;1601445;88;21071;-61
2022/04/24 11:34:01;;;;;;;5.75;3.40;;;;;;;12.13;60.73;98869.90;1599742;88;21095;-62
2022/04/24 11:36:49;;;;;;;6.65;4.08;;;;;;;12.07;60.53;98865.05;1605384;88;21160;-62
2022/04/24 11:39:18;;;;;;;6.80;3.70;;;;;;;12.06;60.80;98867.31;1594092;88;21101;-62
2022/04/24 11:41:46;;;;;;;8.48;4.10;;;;;;;12.17;60.89;98855.65;1561833;89;21004;-62